Погода Сан-Хосе-дель-Кабона 2 недели

Южная Нижняя Калифорния, Мексика

16 - 28 июля
  • 16июля
    Сегодня
    +27°
    +34°
    Ясно и безоблачно
    ВремяПогодаТемператураВлажностьДавлениеВетер, м/сВероятность осадков
    02:00Ясно и безоблачно+28°C71 %757 мм5.5 м/с2 %
    05:00Ясно и безоблачно+27°C71 %757 мм5.6 м/с2 %
    08:00Ясно и безоблачно+31°C64 %758 мм6.0 м/с2 %
    11:00Ясно и безоблачно+33°C59 %758 мм7.2 м/с2 %
    14:00Ясно и безоблачно+33°C58 %757 мм5.8 м/с2 %
    17:00Ясно и безоблачно+34°C59 %755 мм6.3 м/с2 %
    20:00Ясно и безоблачно+31°C61 %756 мм8.4 м/с2 %
    23:00Ясно и безоблачно+30°C64 %757 мм6.9 м/с2 %
  • 17июля
    Среда
    +26°
    +34°
    Ясно и безоблачно
    ВремяПогодаТемператураВлажностьДавлениеВетер, м/сВероятность осадков
    02:00Ясно и безоблачно+29°C68 %756 мм6.5 м/с2 %
    05:00Ясно и безоблачно+28°C67 %756 мм6.8 м/с2 %
    08:00Ясно и безоблачно+31°C62 %757 мм5.1 м/с2 %
    11:00Ясно и безоблачно+32°C61 %757 мм6.4 м/с2 %
    14:00Ясно и безоблачно+32°C64 %756 мм5.6 м/с2 %
    17:00Ясно и безоблачно+33°C58 %755 мм6.3 м/с2 %
    20:00Ясно и безоблачно+31°C66 %756 мм6.9 м/с2 %
    23:00Ясно и безоблачно+29°C68 %757 мм7.6 м/с2 %
  • 18июля
    Четверг
    +26°
    +33°
    Ясно и безоблачно
    ВремяПогодаТемператураВлажностьДавлениеВетер, м/сВероятность осадков
    02:00Ясно и безоблачно+28°C70 %756 мм6.1 м/с2 %
    05:00Ясно и безоблачно+27°C74 %756 мм6.9 м/с2 %
    08:00Ясно и безоблачно+30°C64 %757 мм4.5 м/с2 %
    11:00Ясно и безоблачно+32°C69 %757 мм3.9 м/с2 %
    14:00Ясно и безоблачно+32°C64 %756 мм4.4 м/с2 %
    17:00Ясно и безоблачно+33°C61 %755 мм4.5 м/с2 %
    20:00Ясно и безоблачно+30°C73 %757 мм5.7 м/с2 %
    23:00Ясно и безоблачно+28°C72 %757 мм4.6 м/с2 %
  • 19июля
    Пятница
    +26°
    +33°
    Ясно и безоблачно
    ВремяПогодаТемператураВлажностьДавлениеВетер, м/сВероятность осадков
    02:00Ясно и безоблачно+27°C74 %756 мм5.0 м/с2 %
    05:00Ясно и безоблачно+27°C72 %756 мм3.9 м/с2 %
    08:00Ясно и безоблачно+30°C70 %757 мм2.2 м/с2 %
    11:00Ясно и безоблачно+31°C73 %757 мм2.3 м/с2 %
    14:00Ясно и безоблачно+31°C70 %756 мм3.5 м/с2 %
    17:00Ясно и безоблачно+32°C65 %755 мм4.2 м/с2 %
    20:00Ясно и безоблачно+30°C69 %756 мм5.3 м/с2 %
    23:00Ясно и безоблачно+29°C72 %757 мм4.6 м/с2 %
Мы используем cookies
Соглашаюсь